createdAt,value
2017-09-14T00:00:22.977Z,3.53
2017-09-14T00:02:51.264Z,2.40
2017-09-14T00:05:18.801Z,2.90
2017-09-14T00:07:47.267Z,3.10
2017-09-14T00:10:14.985Z,2.70
2017-09-14T00:12:42.768Z,3.73
2017-09-14T00:15:10.320Z,2.73
2017-09-14T00:17:38.077Z,3.37
2017-09-14T00:20:05.633Z,2.93
2017-09-14T00:22:33.499Z,2.73
2017-09-14T00:25:01.131Z,2.80
2017-09-14T00:27:28.732Z,2.40
2017-09-14T00:29:56.482Z,2.80
2017-09-14T00:32:23.990Z,2.80
2017-09-14T00:34:51.704Z,2.97
2017-09-14T00:37:19.199Z,2.43
2017-09-14T00:39:46.902Z,3.40
2017-09-14T00:42:15.308Z,2.40
2017-09-14T00:44:42.880Z,2.53
2017-09-14T00:47:10.385Z,2.60
2017-09-14T00:49:38.219Z,3.17
2017-09-14T00:52:05.753Z,2.77
2017-09-14T00:54:33.664Z,2.80
2017-09-14T00:57:01.204Z,2.27
2017-09-14T00:59:28.724Z,2.37
2017-09-14T01:01:56.329Z,2.23
2017-09-14T01:04:23.945Z,2.30
2017-09-14T01:06:51.532Z,2.50
2017-09-14T01:09:19.174Z,2.97
2017-09-14T01:11:46.692Z,2.97
2017-09-14T01:14:14.269Z,2.63
2017-09-14T01:16:42.805Z,3.17
2017-09-14T01:19:10.356Z,2.97
2017-09-14T01:21:37.847Z,2.00
2017-09-14T01:24:05.705Z,2.30
2017-09-14T01:26:33.244Z,2.80
2017-09-14T01:29:00.768Z,2.37
2017-09-14T01:31:28.296Z,2.47
2017-09-14T01:33:55.803Z,2.23
2017-09-14T01:36:23.345Z,2.37
2017-09-14T01:38:50.895Z,2.47
2017-09-14T01:41:18.645Z,2.57
2017-09-14T01:43:46.303Z,2.23
2017-09-14T01:46:14.620Z,2.33
2017-09-14T01:48:42.152Z,2.70
2017-09-14T01:51:09.723Z,2.73
2017-09-14T01:53:37.232Z,2.30
2017-09-14T01:56:04.734Z,2.40
2017-09-14T01:58:32.324Z,1.83
2017-09-14T02:00:59.838Z,2.40
2017-09-14T02:03:27.359Z,2.20
2017-09-14T02:05:54.984Z,2.20
2017-09-14T02:08:22.524Z,2.30
2017-09-14T02:10:50.318Z,2.03
2017-09-14T02:13:17.958Z,1.97
2017-09-14T02:15:45.466Z,2.10
2017-09-14T02:18:13.008Z,2.27
2017-09-14T02:20:40.508Z,1.70
2017-09-14T02:23:08.008Z,1.60
2017-09-14T02:25:35.560Z,2.20
2017-09-14T02:28:03.494Z,2.27
2017-09-14T02:30:31.014Z,1.70
2017-09-14T02:32:58.732Z,2.00
2017-09-14T02:35:26.289Z,1.63
2017-09-14T02:37:53.814Z,2.07
2017-09-14T02:40:21.388Z,1.90
2017-09-14T02:42:48.991Z,1.50
2017-09-14T02:45:16.529Z,1.93
2017-09-14T02:47:44.054Z,1.40
2017-09-14T02:50:11.673Z,2.00
2017-09-14T02:52:39.250Z,1.70
2017-09-14T02:55:06.849Z,1.50
2017-09-14T02:57:35.738Z,2.00
2017-09-14T03:00:03.280Z,1.73
2017-09-14T03:02:31.006Z,2.00
2017-09-14T03:04:59.099Z,1.80
2017-09-14T03:07:27.424Z,1.83
2017-09-14T03:09:54.945Z,2.33
2017-09-14T03:12:22.468Z,1.97
2017-09-14T03:14:50.004Z,1.63
2017-09-14T03:17:17.690Z,1.80
2017-09-14T03:19:45.188Z,1.67
2017-09-14T03:22:12.909Z,1.30
2017-09-14T03:24:40.418Z,1.70
2017-09-14T03:27:07.961Z,1.70
2017-09-14T03:29:35.587Z,1.80
2017-09-14T03:32:03.249Z,1.47
2017-09-14T03:34:30.809Z,1.87
2017-09-14T03:36:58.378Z,1.30
2017-09-14T03:39:26.044Z,1.50
2017-09-14T03:41:53.544Z,1.33
2017-09-14T03:44:21.857Z,1.60
2017-09-14T03:46:49.555Z,1.30
2017-09-14T03:49:17.055Z,1.70
2017-09-14T03:51:45.308Z,1.73
2017-09-14T03:54:12.868Z,1.23
2017-09-14T03:56:40.413Z,1.47
2017-09-14T03:59:07.896Z,1.30
2017-09-14T04:01:35.417Z,1.80
2017-09-14T04:04:02.972Z,1.37
2017-09-14T04:06:30.502Z,0.97
2017-09-14T04:08:58.307Z,1.50
2017-09-14T04:11:25.836Z,1.37
2017-09-14T04:13:53.325Z,1.17
2017-09-14T04:16:20.870Z,1.10
2017-09-14T04:18:48.414Z,1.20
2017-09-14T04:21:15.960Z,1.00
2017-09-14T04:23:43.470Z,1.20
2017-09-14T04:26:10.978Z,1.30
2017-09-14T04:28:38.692Z,1.43
2017-09-14T04:31:06.204Z,1.20
2017-09-14T04:33:33.760Z,1.40
2017-09-14T04:36:01.256Z,0.90
2017-09-14T04:38:28.760Z,1.13
2017-09-14T04:40:56.360Z,1.43
2017-09-14T04:43:23.866Z,1.13
2017-09-14T04:45:52.178Z,1.00
2017-09-14T04:48:19.676Z,0.80
2017-09-14T04:50:48.009Z,1.10
2017-09-14T04:53:15.537Z,0.80
2017-09-14T04:55:43.805Z,1.40
2017-09-14T04:58:11.372Z,0.90
2017-09-14T05:00:39.790Z,1.20
2017-09-14T05:03:07.906Z,0.80
2017-09-14T05:05:35.456Z,1.10
2017-09-14T05:08:02.955Z,0.80
2017-09-14T05:10:30.508Z,1.00
2017-09-14T05:12:58.820Z,0.90
2017-09-14T05:15:26.315Z,0.73
2017-09-14T05:17:53.886Z,0.83
2017-09-14T05:20:21.842Z,0.60
2017-09-14T05:22:49.873Z,0.90
2017-09-14T05:25:17.431Z,1.10
2017-09-14T05:27:45.056Z,0.90
2017-09-14T05:30:12.653Z,0.73
2017-09-14T05:32:40.210Z,1.20
2017-09-14T05:35:07.714Z,0.70
2017-09-14T05:37:35.208Z,1.20
2017-09-14T05:40:02.756Z,1.00
2017-09-14T05:42:30.265Z,0.83
2017-09-14T05:44:58.257Z,0.73
2017-09-14T05:47:25.806Z,0.90
2017-09-14T05:49:53.342Z,1.40
2017-09-14T05:52:20.891Z,0.80
2017-09-14T05:54:48.397Z,0.90
2017-09-14T05:57:15.988Z,1.00
2017-09-14T05:59:43.515Z,0.70
2017-09-14T06:02:11.044Z,0.80
2017-09-14T06:04:38.547Z,1.00
2017-09-14T06:07:06.136Z,1.07
2017-09-14T06:09:33.652Z,0.80
2017-09-14T06:12:01.177Z,0.80
2017-09-14T06:14:28.710Z,1.07
2017-09-14T06:16:56.982Z,0.90
2017-09-14T06:19:24.507Z,1.13
2017-09-14T06:21:52.000Z,1.67
2017-09-14T06:24:19.559Z,1.10
2017-09-14T06:26:47.079Z,1.30
2017-09-14T06:29:14.618Z,1.77
2017-09-14T06:31:42.149Z,1.73
2017-09-14T06:34:10.459Z,1.17
2017-09-14T06:36:38.009Z,0.77
2017-09-14T06:39:05.536Z,0.90
2017-09-14T06:41:33.412Z,0.53
2017-09-14T06:44:00.936Z,1.00
2017-09-14T06:46:28.471Z,0.50
2017-09-14T06:48:55.966Z,0.77
2017-09-14T06:51:23.463Z,0.60
2017-09-14T06:53:51.043Z,0.73
2017-09-14T06:56:18.548Z,0.40
2017-09-14T06:58:46.812Z,0.40
2017-09-14T07:01:14.622Z,0.70
2017-09-14T07:03:42.115Z,0.60
2017-09-14T07:11:15.265Z,0.43
2017-09-14T07:13:42.765Z,1.40
2017-09-14T07:16:10.337Z,0.50
2017-09-14T07:18:38.597Z,0.80
2017-09-14T07:21:06.476Z,0.60
2017-09-14T07:23:34.744Z,0.60
2017-09-14T07:26:02.261Z,0.90
2017-09-14T07:28:29.776Z,0.60
2017-09-14T07:30:57.322Z,1.63
2017-09-14T07:33:24.829Z,0.90
2017-09-14T07:35:52.324Z,1.50
2017-09-14T07:38:19.881Z,1.20
2017-09-14T07:40:48.201Z,1.20
2017-09-14T07:43:15.704Z,1.20
2017-09-14T07:45:43.200Z,1.73
2017-09-14T07:48:11.504Z,1.33
2017-09-14T07:50:39.028Z,1.50
2017-09-14T07:53:07.393Z,1.10
2017-09-14T07:55:34.891Z,0.90
2017-09-14T07:58:02.416Z,1.37
2017-09-14T08:00:29.984Z,1.03
2017-09-14T08:02:58.279Z,0.93
2017-09-14T08:05:25.790Z,1.77
2017-09-14T08:07:53.352Z,1.00
2017-09-14T08:10:20.864Z,1.50
2017-09-14T08:12:48.432Z,0.90
2017-09-14T08:15:15.985Z,1.43
2017-09-14T08:17:43.480Z,1.43
2017-09-14T08:20:11.036Z,1.57
2017-09-14T08:22:38.572Z,0.90
2017-09-14T08:25:06.078Z,1.53
2017-09-14T08:27:33.612Z,1.33
2017-09-14T08:30:01.117Z,0.97
2017-09-14T08:32:28.988Z,1.00
2017-09-14T08:34:56.503Z,1.63
2017-09-14T08:37:24.088Z,1.23
2017-09-14T08:39:51.698Z,1.43
2017-09-14T08:42:19.202Z,0.97
2017-09-14T08:44:47.496Z,1.07
2017-09-14T08:47:15.044Z,1.87
2017-09-14T08:49:43.308Z,1.57
2017-09-14T08:52:10.832Z,1.00
2017-09-14T08:54:38.604Z,1.20
2017-09-14T08:57:06.105Z,1.90
2017-09-14T08:59:34.435Z,1.17
2017-09-14T09:02:02.008Z,0.70
2017-09-14T09:04:29.528Z,2.13
2017-09-14T09:06:57.035Z,1.43
2017-09-14T09:09:24.566Z,1.10
2017-09-14T09:11:52.109Z,1.30
2017-09-14T09:14:19.600Z,1.03
2017-09-14T09:16:47.364Z,1.40
2017-09-14T09:19:15.306Z,1.30
2017-09-14T09:21:42.897Z,1.37
2017-09-14T09:24:10.415Z,1.10
2017-09-14T09:26:37.916Z,0.90
2017-09-14T09:29:05.497Z,1.10
2017-09-14T09:31:33.870Z,1.00
2017-09-14T09:34:01.381Z,1.47
2017-09-14T09:36:28.964Z,1.50
2017-09-14T09:38:56.458Z,1.10
2017-09-14T09:41:24.720Z,1.37
2017-09-14T09:43:53.068Z,1.00
2017-09-14T09:46:20.689Z,0.70
2017-09-14T09:48:48.229Z,1.40
2017-09-14T09:51:16.517Z,0.70
2017-09-14T09:53:44.057Z,1.70
2017-09-14T09:56:11.605Z,1.03
2017-09-14T09:58:39.860Z,0.83
2017-09-14T10:01:07.389Z,1.13
2017-09-14T10:03:35.678Z,0.70
2017-09-14T10:06:03.331Z,0.90
2017-09-14T10:08:30.844Z,0.93
2017-09-14T10:10:59.171Z,0.90
2017-09-14T10:13:26.671Z,0.60
2017-09-14T10:15:54.169Z,0.90
2017-09-14T10:18:21.696Z,1.13
2017-09-14T10:20:49.256Z,0.80
2017-09-14T10:23:17.616Z,1.17
2017-09-14T10:25:45.122Z,1.33
2017-09-14T10:28:12.688Z,0.57
2017-09-14T10:30:40.185Z,1.07
2017-09-14T10:33:07.717Z,0.70
2017-09-14T10:35:35.249Z,0.63
2017-09-14T10:38:03.521Z,1.23
2017-09-14T10:40:31.078Z,0.73
2017-09-14T10:42:59.345Z,0.83
2017-09-14T10:45:27.184Z,1.00
2017-09-14T10:47:54.766Z,0.67
2017-09-14T10:50:22.322Z,1.10
2017-09-14T10:52:49.852Z,1.07
2017-09-14T10:55:17.516Z,0.80
2017-09-14T10:57:45.089Z,1.30
2017-09-14T11:00:12.669Z,1.03
2017-09-14T11:02:40.588Z,1.40
2017-09-14T11:05:08.144Z,0.70
2017-09-14T11:07:35.679Z,1.17
2017-09-14T11:10:03.189Z,0.57
2017-09-14T11:12:30.780Z,1.20
2017-09-14T11:14:59.048Z,0.57
2017-09-14T11:17:26.553Z,0.67
2017-09-14T11:19:54.131Z,0.73
2017-09-14T11:22:21.702Z,0.67
2017-09-14T11:24:49.192Z,0.70
2017-09-14T11:27:16.727Z,0.80
2017-09-14T11:29:44.242Z,1.63
2017-09-14T11:32:11.765Z,0.50
2017-09-14T11:34:39.348Z,0.70
2017-09-14T11:37:06.939Z,0.60
2017-09-14T11:39:34.677Z,0.50
2017-09-14T11:42:02.210Z,1.00
2017-09-14T11:44:29.747Z,0.70
2017-09-14T11:46:57.288Z,0.50
2017-09-14T11:49:24.786Z,2.00
2017-09-14T11:51:53.056Z,1.13
2017-09-14T11:54:20.646Z,0.47
2017-09-14T11:56:48.162Z,0.87
2017-09-14T11:59:15.873Z,0.60
2017-09-14T12:01:43.405Z,1.43
2017-09-14T12:04:10.907Z,0.90
2017-09-14T12:06:38.464Z,0.63
2017-09-14T12:09:05.981Z,0.40
2017-09-14T12:11:34.269Z,0.80
2017-09-14T12:14:01.861Z,0.63
2017-09-14T12:16:29.513Z,0.60
2017-09-14T12:18:57.004Z,0.40
2017-09-14T12:21:24.537Z,0.40
2017-09-14T12:23:52.836Z,1.23
2017-09-14T12:26:20.368Z,0.40
2017-09-14T12:28:47.875Z,1.10
2017-09-14T12:31:16.213Z,0.50
2017-09-14T12:33:44.163Z,0.83
2017-09-14T12:36:11.819Z,0.50
2017-09-14T12:38:39.394Z,0.70
2017-09-14T12:41:06.956Z,0.70
2017-09-14T12:43:34.456Z,0.90
2017-09-14T12:46:01.969Z,0.67
2017-09-14T12:48:29.945Z,0.60
2017-09-14T12:50:57.436Z,0.40
2017-09-14T12:53:24.968Z,0.43
2017-09-14T12:55:52.519Z,0.97
2017-09-14T12:58:20.753Z,0.40
2017-09-14T13:00:48.325Z,0.40
2017-09-14T13:03:15.885Z,0.50
2017-09-14T13:05:43.383Z,0.70
2017-09-14T13:08:10.978Z,0.80
2017-09-14T13:10:39.267Z,0.87
2017-09-14T13:13:06.825Z,0.90
2017-09-14T13:15:35.101Z,0.50
2017-09-14T13:18:03.400Z,0.50
2017-09-14T13:20:30.933Z,0.40
2017-09-14T13:22:58.476Z,0.40
2017-09-14T13:25:26.004Z,1.57
2017-09-14T13:27:53.554Z,0.90
2017-09-14T13:30:21.080Z,0.50
2017-09-14T13:32:48.628Z,0.43
2017-09-14T13:35:16.984Z,0.30
2017-09-14T13:37:44.612Z,0.80
2017-09-14T13:40:12.122Z,0.40
2017-09-14T13:42:39.649Z,0.33
2017-09-14T13:45:07.199Z,0.50
2017-09-14T13:47:34.749Z,0.40
2017-09-14T13:50:02.281Z,0.40
2017-09-14T13:52:29.822Z,0.70
2017-09-14T13:54:58.116Z,0.40
2017-09-14T13:57:25.628Z,0.47
2017-09-14T13:59:53.152Z,0.57
2017-09-14T14:02:20.652Z,0.47
2017-09-14T14:04:48.992Z,0.80
2017-09-14T14:07:16.519Z,0.40
2017-09-14T14:09:44.036Z,2.30
2017-09-14T14:12:11.578Z,0.30
2017-09-14T14:14:39.104Z,0.70
2017-09-14T14:17:06.657Z,0.50
2017-09-14T14:19:34.168Z,0.80
2017-09-14T14:22:01.705Z,0.90
2017-09-14T14:24:29.238Z,0.90
2017-09-14T14:26:56.759Z,1.33
2017-09-14T14:29:24.279Z,0.60
2017-09-14T14:31:51.825Z,0.87
2017-09-14T14:34:19.322Z,0.60
2017-09-14T14:36:46.908Z,0.80
2017-09-14T14:39:15.188Z,0.70
2017-09-14T14:41:42.826Z,0.70
2017-09-14T14:44:10.405Z,1.00
2017-09-14T14:46:37.934Z,0.73
2017-09-14T14:49:05.573Z,0.60
2017-09-14T14:51:33.128Z,1.00
2017-09-14T14:54:00.621Z,1.00
2017-09-14T14:56:28.197Z,0.67
2017-09-14T14:58:56.533Z,0.70
2017-09-14T15:01:24.070Z,1.23
2017-09-14T15:03:51.579Z,1.13
2017-09-14T15:06:19.154Z,0.70
2017-09-14T15:08:46.672Z,1.03
2017-09-14T15:11:14.225Z,2.30
2017-09-14T15:13:41.759Z,0.90
2017-09-14T15:16:09.362Z,0.70
2017-09-14T15:18:36.865Z,0.60
2017-09-14T15:21:04.381Z,0.70
2017-09-14T15:23:31.931Z,0.50
2017-09-14T15:25:59.429Z,1.10
2017-09-14T15:28:27.736Z,0.83
2017-09-14T15:30:55.265Z,0.60
2017-09-14T15:33:22.795Z,0.73
2017-09-14T15:35:50.332Z,0.97
2017-09-14T15:38:17.837Z,1.10
2017-09-14T15:40:51.616Z,1.13
2017-09-14T15:43:24.860Z,0.53
2017-09-14T15:45:52.435Z,0.90
2017-09-14T15:48:25.623Z,0.50
2017-09-14T15:50:58.855Z,0.60
2017-09-14T15:53:26.351Z,0.60
2017-09-14T15:55:53.844Z,0.60
2017-09-14T15:58:21.390Z,0.90
2017-09-14T16:00:48.895Z,0.60
2017-09-14T16:03:16.454Z,0.50
2017-09-14T16:05:43.948Z,1.10
2017-09-14T16:08:11.469Z,0.60
2017-09-14T16:10:39.087Z,0.90
2017-09-14T16:13:06.581Z,0.50
2017-09-14T16:15:34.507Z,0.60
2017-09-14T16:18:02.000Z,0.93
2017-09-14T16:20:29.560Z,1.20
2017-09-14T16:22:57.600Z,0.67
2017-09-14T16:25:25.102Z,0.67
2017-09-14T16:27:52.661Z,1.40
2017-09-14T16:30:20.472Z,0.70
2017-09-14T16:32:48.021Z,1.10
2017-09-14T16:35:15.562Z,0.80
2017-09-14T16:37:43.072Z,0.60
2017-09-14T16:40:10.584Z,1.00
2017-09-14T16:42:38.877Z,1.10
2017-09-14T16:45:06.405Z,0.60
2017-09-14T16:47:33.940Z,0.70
2017-09-14T16:50:01.434Z,1.10
2017-09-14T16:52:29.085Z,1.10
2017-09-14T16:54:56.604Z,0.80
2017-09-14T16:57:24.122Z,0.80
2017-09-14T16:59:52.489Z,1.07
2017-09-14T17:02:20.758Z,0.80
2017-09-14T17:04:49.026Z,0.97
2017-09-14T17:07:16.545Z,0.73
2017-09-14T17:09:44.125Z,0.97
2017-09-14T17:12:11.647Z,0.70
2017-09-14T17:14:39.156Z,0.60
2017-09-14T17:17:06.688Z,0.60
2017-09-14T17:19:34.195Z,1.00
2017-09-14T17:22:01.726Z,0.60
2017-09-14T17:24:29.980Z,0.67
2017-09-14T17:26:57.557Z,0.50
2017-09-14T17:29:25.067Z,0.60
2017-09-14T17:31:52.589Z,1.03
2017-09-14T17:34:20.120Z,0.50
2017-09-14T17:36:47.668Z,0.90
2017-09-14T17:39:15.192Z,0.70
2017-09-14T17:41:43.482Z,1.63
2017-09-14T17:44:11.048Z,0.67
2017-09-14T17:46:38.539Z,1.30
2017-09-14T17:49:06.073Z,0.80
2017-09-14T17:51:33.604Z,0.90
2017-09-14T17:54:02.113Z,1.00
2017-09-14T17:56:30.182Z,0.70
2017-09-14T17:58:58.299Z,0.90
2017-09-14T18:01:25.820Z,0.60
2017-09-14T18:03:53.341Z,1.20
2017-09-14T18:06:21.600Z,1.07
2017-09-14T18:08:49.120Z,1.10
2017-09-14T18:11:16.624Z,0.70
2017-09-14T18:13:44.925Z,0.70
2017-09-14T18:16:12.442Z,1.20
2017-09-14T18:18:39.955Z,0.80
2017-09-14T18:21:07.488Z,0.83
2017-09-14T18:23:34.997Z,1.10
2017-09-14T18:26:02.505Z,1.23
2017-09-14T18:28:30.817Z,1.80
2017-09-14T18:30:58.303Z,1.20
2017-09-14T18:33:25.856Z,1.47
2017-09-14T18:35:53.351Z,1.13
2017-09-14T18:38:20.936Z,0.83
2017-09-14T18:40:48.432Z,0.80
2017-09-14T18:43:15.918Z,1.00
2017-09-14T18:45:44.220Z,1.00
2017-09-14T18:48:11.762Z,1.20
2017-09-14T18:50:40.020Z,0.93
2017-09-14T18:56:00.512Z,1.27
2017-09-14T18:58:28.366Z,2.03
2017-09-14T19:00:55.852Z,0.97
2017-09-14T19:03:23.436Z,1.10
2017-09-14T19:05:51.705Z,0.80
2017-09-14T19:08:19.970Z,1.30
2017-09-14T19:10:47.488Z,0.83
2017-09-14T19:13:15.003Z,1.40
2017-09-14T19:15:42.617Z,0.90
2017-09-14T19:18:10.156Z,0.77
2017-09-14T19:20:37.710Z,0.73
2017-09-14T19:23:05.317Z,1.10
2017-09-14T19:25:32.812Z,1.33
2017-09-14T19:28:01.105Z,1.30
2017-09-14T19:30:28.629Z,1.10
2017-09-14T19:32:56.904Z,1.00
2017-09-14T19:35:25.231Z,1.30
2017-09-14T19:37:52.751Z,1.23
2017-09-14T19:40:20.255Z,1.37
2017-09-14T19:42:47.810Z,0.90
2017-09-14T19:45:15.567Z,0.90
2017-09-14T19:47:43.086Z,1.07
2017-09-14T19:50:10.630Z,1.07
2017-09-14T19:52:38.123Z,0.90
2017-09-14T19:55:05.672Z,1.00
2017-09-14T19:57:33.201Z,1.00
2017-09-14T20:00:00.752Z,1.03
2017-09-14T20:02:28.263Z,0.60
2017-09-14T20:04:55.854Z,0.80
2017-09-14T20:07:23.351Z,0.90
2017-09-14T20:09:51.669Z,2.03
2017-09-14T20:12:19.165Z,0.90
2017-09-14T20:14:46.666Z,0.60
2017-09-14T20:17:14.968Z,1.03
2017-09-14T20:19:42.520Z,1.10
2017-09-14T20:22:10.047Z,1.00
2017-09-14T20:24:37.545Z,1.30
2017-09-14T20:27:05.068Z,1.20
2017-09-14T20:29:33.361Z,0.70
2017-09-14T20:32:00.870Z,1.30
2017-09-14T20:34:29.025Z,1.00
2017-09-14T20:36:56.504Z,1.00
2017-09-14T20:39:24.152Z,1.63
2017-09-14T20:41:51.709Z,1.93
2017-09-14T20:44:19.266Z,1.00
2017-09-14T20:46:46.851Z,1.00
2017-09-14T20:49:14.361Z,1.00
2017-09-14T20:51:41.889Z,1.93
2017-09-14T20:54:09.428Z,1.10
2017-09-14T20:56:36.928Z,1.27
2017-09-14T20:59:04.505Z,0.80
2017-09-14T21:01:32.096Z,1.37
2017-09-14T21:03:59.631Z,1.27
2017-09-14T21:06:27.124Z,1.07
2017-09-14T21:08:54.680Z,1.27
2017-09-14T21:11:22.191Z,0.90
2017-09-14T21:13:49.754Z,1.30
2017-09-14T21:16:17.361Z,1.10
2017-09-14T21:18:44.921Z,1.00
2017-09-14T21:21:12.466Z,0.93
2017-09-14T21:23:39.988Z,1.20
2017-09-14T21:26:07.516Z,1.10
2017-09-14T21:28:35.062Z,1.10
2017-09-14T21:31:03.388Z,0.93
2017-09-14T21:33:30.900Z,1.30
2017-09-14T21:35:59.321Z,1.80
2017-09-14T21:38:27.087Z,1.13
2017-09-14T21:40:54.608Z,1.10
2017-09-14T21:43:22.869Z,0.77
2017-09-14T21:45:50.491Z,1.17
2017-09-14T21:48:17.979Z,1.00
2017-09-14T21:50:45.515Z,1.70
2017-09-14T21:53:13.065Z,1.03
2017-09-14T21:55:40.572Z,1.00
2017-09-14T21:58:08.079Z,1.03
2017-09-14T22:00:35.741Z,0.90
2017-09-14T22:03:03.232Z,0.90
2017-09-14T22:05:30.725Z,1.00
2017-09-14T22:07:59.021Z,1.10
2017-09-14T22:10:26.525Z,0.70
2017-09-14T22:12:54.021Z,0.90
2017-09-14T22:15:22.348Z,1.03
2017-09-14T22:17:49.840Z,1.03
2017-09-14T22:20:17.327Z,0.97
2017-09-14T22:22:44.905Z,0.80
2017-09-14T22:25:12.404Z,0.80
2017-09-14T22:27:39.928Z,0.90
2017-09-14T22:30:07.447Z,1.47
2017-09-14T22:32:34.940Z,0.87
2017-09-14T22:35:02.491Z,0.90
2017-09-14T22:37:30.005Z,0.80
2017-09-14T22:39:58.344Z,2.30
2017-09-14T22:42:25.836Z,1.43
2017-09-14T22:44:53.404Z,0.77
2017-09-14T22:47:20.929Z,1.10
2017-09-14T22:49:48.458Z,1.50
2017-09-14T22:52:15.962Z,1.03
2017-09-14T22:54:43.506Z,1.30
2017-09-14T22:57:10.996Z,1.23
2017-09-14T22:59:38.553Z,1.37
2017-09-14T23:02:06.057Z,1.07
2017-09-14T23:04:33.547Z,1.80
2017-09-14T23:07:01.073Z,1.00
2017-09-14T23:09:28.570Z,0.97
2017-09-14T23:11:56.125Z,1.20
2017-09-14T23:14:23.645Z,1.50
2017-09-14T23:16:51.153Z,1.70
2017-09-14T23:19:18.668Z,1.53
2017-09-14T23:21:46.204Z,1.90
2017-09-14T23:24:13.706Z,1.07
2017-09-14T23:26:41.240Z,1.30
2017-09-14T23:29:08.780Z,1.10
2017-09-14T23:31:36.392Z,1.47
2017-09-14T23:34:03.929Z,1.43
2017-09-14T23:36:31.441Z,0.90
2017-09-14T23:38:59.721Z,0.87
2017-09-14T23:41:27.256Z,1.10
2017-09-14T23:43:55.038Z,0.80
2017-09-14T23:46:23.316Z,1.00
2017-09-14T23:48:50.812Z,0.80
2017-09-14T23:51:18.330Z,1.00
2017-09-14T23:53:46.645Z,0.93
2017-09-14T23:56:14.155Z,0.93
2017-09-14T23:58:41.681Z,0.97
